createdAt,value
2023-06-07T00:00:21.000Z,99.99
2023-06-07T00:01:21.000Z,99.99
2023-06-07T00:02:21.000Z,99.99
2023-06-07T00:03:21.000Z,99.99
2023-06-07T00:04:21.000Z,99.99
2023-06-07T00:05:21.000Z,99.99
2023-06-07T00:06:21.000Z,99.99
2023-06-07T00:07:21.000Z,99.99
2023-06-07T00:08:21.000Z,99.99
2023-06-07T00:09:21.000Z,99.99
2023-06-07T00:10:21.000Z,99.99
2023-06-07T00:11:21.000Z,99.99
2023-06-07T00:12:21.000Z,99.99
2023-06-07T00:13:21.000Z,99.99
2023-06-07T00:14:21.000Z,99.99
2023-06-07T00:15:21.000Z,99.99
2023-06-07T00:16:21.000Z,99.99
2023-06-07T00:17:21.000Z,99.99
2023-06-07T00:18:21.000Z,99.99
2023-06-07T00:19:21.000Z,99.99
2023-06-07T00:20:21.000Z,99.99
2023-06-07T00:21:21.000Z,99.99
2023-06-07T00:22:21.000Z,99.99
2023-06-07T00:23:21.000Z,99.99
2023-06-07T00:24:21.000Z,99.99
2023-06-07T00:25:20.000Z,99.99
2023-06-07T00:26:20.000Z,99.99
2023-06-07T00:27:20.000Z,99.99
2023-06-07T00:28:20.000Z,99.99
2023-06-07T00:29:20.000Z,99.99
2023-06-07T00:30:20.000Z,99.99
2023-06-07T00:31:20.000Z,99.99
2023-06-07T00:32:20.000Z,99.99
2023-06-07T00:33:20.000Z,99.99
2023-06-07T00:34:20.000Z,99.99
2023-06-07T00:35:20.000Z,99.99
2023-06-07T00:36:20.000Z,99.99
2023-06-07T00:37:20.000Z,99.99
2023-06-07T00:38:20.000Z,99.99
2023-06-07T00:39:20.000Z,99.99
2023-06-07T00:40:20.000Z,99.99
2023-06-07T00:41:20.000Z,99.99
2023-06-07T00:42:20.000Z,99.99
2023-06-07T00:43:20.000Z,99.99
2023-06-07T00:44:20.000Z,99.99
2023-06-07T00:45:20.000Z,99.99
2023-06-07T00:46:20.000Z,99.99
2023-06-07T00:47:20.000Z,99.99
2023-06-07T00:48:20.000Z,99.99
2023-06-07T00:49:20.000Z,99.99
2023-06-07T00:50:20.000Z,99.99
2023-06-07T00:51:20.000Z,99.99
2023-06-07T00:52:20.000Z,99.99
2023-06-07T00:53:20.000Z,99.99
2023-06-07T00:54:20.000Z,99.99
2023-06-07T00:55:20.000Z,99.99
2023-06-07T00:56:20.000Z,99.99
2023-06-07T00:57:20.000Z,99.99
2023-06-07T00:58:20.000Z,99.99
2023-06-07T00:59:20.000Z,99.99
2023-06-07T01:00:20.000Z,99.99
2023-06-07T01:01:20.000Z,99.99
2023-06-07T01:02:20.000Z,99.99
2023-06-07T01:03:20.000Z,99.99
2023-06-07T01:04:20.000Z,99.99
2023-06-07T01:05:20.000Z,99.99
2023-06-07T01:06:20.000Z,99.99
2023-06-07T01:07:20.000Z,99.99
2023-06-07T01:08:20.000Z,99.99
2023-06-07T01:09:20.000Z,99.99
2023-06-07T01:10:20.000Z,99.99
2023-06-07T01:11:20.000Z,99.99
2023-06-07T01:12:20.000Z,99.99
2023-06-07T01:13:20.000Z,99.99
2023-06-07T01:14:20.000Z,99.99
2023-06-07T01:15:20.000Z,99.99
2023-06-07T01:16:20.000Z,99.99
2023-06-07T01:17:20.000Z,99.99
2023-06-07T01:18:20.000Z,99.99
2023-06-07T01:19:20.000Z,99.99
2023-06-07T01:20:20.000Z,99.99
2023-06-07T01:21:20.000Z,99.99
2023-06-07T01:22:20.000Z,99.99
2023-06-07T01:23:20.000Z,99.99
2023-06-07T01:24:20.000Z,99.99
2023-06-07T01:25:20.000Z,99.99
2023-06-07T01:26:20.000Z,99.99
2023-06-07T01:27:20.000Z,99.99
2023-06-07T01:28:20.000Z,99.99
2023-06-07T01:29:20.000Z,99.99
2023-06-07T01:30:20.000Z,99.99
2023-06-07T01:31:20.000Z,99.99
2023-06-07T01:32:20.000Z,99.99
2023-06-07T01:33:20.000Z,99.99
2023-06-07T01:34:20.000Z,99.99
2023-06-07T01:35:20.000Z,99.99
2023-06-07T01:36:20.000Z,99.99
2023-06-07T01:37:20.000Z,99.99
2023-06-07T01:38:20.000Z,99.99
2023-06-07T01:39:20.000Z,99.99
2023-06-07T01:40:20.000Z,99.99
2023-06-07T01:41:20.000Z,99.99
2023-06-07T01:42:20.000Z,99.99
2023-06-07T01:43:20.000Z,99.99
2023-06-07T01:44:20.000Z,99.99
2023-06-07T01:45:20.000Z,99.99
2023-06-07T01:46:20.000Z,99.99
2023-06-07T01:47:20.000Z,99.99
2023-06-07T01:48:20.000Z,99.99
2023-06-07T01:49:20.000Z,99.99
2023-06-07T01:50:20.000Z,99.99
2023-06-07T01:51:20.000Z,99.99
2023-06-07T01:52:20.000Z,99.99
2023-06-07T01:53:20.000Z,99.99
2023-06-07T01:54:20.000Z,99.99
2023-06-07T01:55:20.000Z,99.99
2023-06-07T01:56:20.000Z,99.99
2023-06-07T01:57:20.000Z,99.99
2023-06-07T01:58:20.000Z,99.99
2023-06-07T01:59:20.000Z,99.99
2023-06-07T02:00:20.000Z,99.99
2023-06-07T02:01:20.000Z,99.99
2023-06-07T02:02:20.000Z,99.99
2023-06-07T02:03:20.000Z,99.99
2023-06-07T02:04:20.000Z,99.99
2023-06-07T02:05:20.000Z,99.99
2023-06-07T02:06:20.000Z,99.99
2023-06-07T02:07:20.000Z,99.99
2023-06-07T02:08:20.000Z,99.99
2023-06-07T02:09:20.000Z,99.99
2023-06-07T02:10:20.000Z,99.99
2023-06-07T02:11:20.000Z,99.99
2023-06-07T02:12:20.000Z,99.99
2023-06-07T02:13:20.000Z,99.99
2023-06-07T02:14:20.000Z,99.99
2023-06-07T02:15:20.000Z,99.99
2023-06-07T02:16:20.000Z,99.99
2023-06-07T02:17:20.000Z,99.99
2023-06-07T02:18:20.000Z,99.99
2023-06-07T02:19:20.000Z,99.99
2023-06-07T02:20:20.000Z,99.99
2023-06-07T02:21:20.000Z,99.99
2023-06-07T02:22:20.000Z,99.99
2023-06-07T02:23:20.000Z,99.99
2023-06-07T02:24:20.000Z,99.99
2023-06-07T02:25:20.000Z,99.99
2023-06-07T02:26:20.000Z,99.99
2023-06-07T02:27:20.000Z,99.99
2023-06-07T02:28:20.000Z,99.99
2023-06-07T02:29:20.000Z,99.99
2023-06-07T02:30:20.000Z,99.99
2023-06-07T02:31:20.000Z,99.99
2023-06-07T02:32:20.000Z,99.99
2023-06-07T02:33:20.000Z,99.99
2023-06-07T02:34:20.000Z,99.99
2023-06-07T02:35:20.000Z,99.99
2023-06-07T02:36:20.000Z,99.99
2023-06-07T02:37:20.000Z,99.99
2023-06-07T02:38:20.000Z,99.99
2023-06-07T02:39:20.000Z,99.99
2023-06-07T02:40:20.000Z,99.99
2023-06-07T02:41:20.000Z,99.99
2023-06-07T02:42:20.000Z,99.99
2023-06-07T02:43:20.000Z,99.99
2023-06-07T02:44:20.000Z,99.99
2023-06-07T02:45:20.000Z,99.99
2023-06-07T02:46:20.000Z,99.99
2023-06-07T02:47:20.000Z,99.99
2023-06-07T02:48:20.000Z,99.99
2023-06-07T02:49:20.000Z,99.99
2023-06-07T02:50:20.000Z,99.99
2023-06-07T02:51:20.000Z,99.99
2023-06-07T02:52:20.000Z,99.99
2023-06-07T02:53:20.000Z,99.99
2023-06-07T02:54:20.000Z,99.99
2023-06-07T02:55:20.000Z,99.99
2023-06-07T02:56:20.000Z,99.99
2023-06-07T02:57:20.000Z,99.99
2023-06-07T02:58:20.000Z,99.99
2023-06-07T02:59:20.000Z,99.99
2023-06-07T03:00:20.000Z,99.99
2023-06-07T03:01:20.000Z,99.99
2023-06-07T03:02:20.000Z,99.99
2023-06-07T03:03:20.000Z,99.99
2023-06-07T03:04:20.000Z,99.99
2023-06-07T03:05:20.000Z,99.99
2023-06-07T03:06:20.000Z,99.99
2023-06-07T03:07:20.000Z,99.99
2023-06-07T03:08:20.000Z,99.99
2023-06-07T03:09:20.000Z,99.99
2023-06-07T03:10:20.000Z,99.99
2023-06-07T03:11:20.000Z,99.99
2023-06-07T03:12:20.000Z,99.99
2023-06-07T03:13:20.000Z,99.99
2023-06-07T03:14:20.000Z,99.99
2023-06-07T03:15:20.000Z,99.99
2023-06-07T03:16:20.000Z,99.99
2023-06-07T03:17:20.000Z,99.99
2023-06-07T03:18:20.000Z,99.99
2023-06-07T03:19:20.000Z,99.99
2023-06-07T03:20:20.000Z,99.99
2023-06-07T03:21:20.000Z,99.99
2023-06-07T03:22:20.000Z,99.99
2023-06-07T03:23:20.000Z,99.99
2023-06-07T03:24:20.000Z,99.99
2023-06-07T03:25:20.000Z,99.99
2023-06-07T03:26:20.000Z,99.99
2023-06-07T03:27:20.000Z,99.99
2023-06-07T03:28:20.000Z,99.99
2023-06-07T03:29:20.000Z,99.99
2023-06-07T03:30:20.000Z,99.99
2023-06-07T03:31:20.000Z,99.99
2023-06-07T03:32:20.000Z,99.99
2023-06-07T03:33:20.000Z,99.99
2023-06-07T03:34:20.000Z,99.99
2023-06-07T03:35:20.000Z,99.99
2023-06-07T03:36:20.000Z,99.99
2023-06-07T03:37:20.000Z,99.99
2023-06-07T03:38:20.000Z,99.99
2023-06-07T03:39:20.000Z,99.99
2023-06-07T03:40:20.000Z,99.99
2023-06-07T03:41:20.000Z,99.99
2023-06-07T03:42:20.000Z,99.99
2023-06-07T03:43:20.000Z,99.99
2023-06-07T03:44:20.000Z,99.99
2023-06-07T03:45:20.000Z,99.99
2023-06-07T03:46:20.000Z,99.99
2023-06-07T03:47:20.000Z,99.99
2023-06-07T03:48:20.000Z,99.99
2023-06-07T03:49:20.000Z,99.99
2023-06-07T03:50:20.000Z,99.99
2023-06-07T03:51:20.000Z,99.99
2023-06-07T03:52:20.000Z,99.99
2023-06-07T03:53:20.000Z,99.99
2023-06-07T03:54:20.000Z,99.99
2023-06-07T03:55:20.000Z,99.99
2023-06-07T03:56:20.000Z,99.99
2023-06-07T03:57:20.000Z,99.99
2023-06-07T03:58:20.000Z,99.99
2023-06-07T03:59:20.000Z,99.99
2023-06-07T04:00:20.000Z,99.99
2023-06-07T04:01:20.000Z,99.99
2023-06-07T04:02:20.000Z,99.99
2023-06-07T04:03:20.000Z,99.99
2023-06-07T04:04:20.000Z,99.99
2023-06-07T04:05:20.000Z,99.99
2023-06-07T04:06:20.000Z,99.99
2023-06-07T04:07:20.000Z,99.99
2023-06-07T04:08:20.000Z,99.99
2023-06-07T04:09:20.000Z,99.99
2023-06-07T04:10:20.000Z,99.99
2023-06-07T04:11:20.000Z,99.99
2023-06-07T04:12:20.000Z,99.99
2023-06-07T04:13:20.000Z,99.99
2023-06-07T04:14:20.000Z,99.99
2023-06-07T04:15:20.000Z,99.99
2023-06-07T04:16:20.000Z,99.99
2023-06-07T04:17:20.000Z,99.99
2023-06-07T04:18:20.000Z,99.99
2023-06-07T04:19:20.000Z,99.99
2023-06-07T04:20:20.000Z,99.99
2023-06-07T04:21:20.000Z,99.99
2023-06-07T04:22:20.000Z,99.99
2023-06-07T04:23:20.000Z,99.99
2023-06-07T04:24:20.000Z,99.99
2023-06-07T04:25:20.000Z,99.99
2023-06-07T04:26:20.000Z,99.99
2023-06-07T04:27:20.000Z,99.99
2023-06-07T04:28:20.000Z,99.99
2023-06-07T04:29:20.000Z,99.99
2023-06-07T04:30:20.000Z,99.99
2023-06-07T04:31:20.000Z,99.99
2023-06-07T04:32:20.000Z,99.99
2023-06-07T04:33:20.000Z,99.99
2023-06-07T04:34:20.000Z,99.99
2023-06-07T04:35:20.000Z,99.99
2023-06-07T04:36:20.000Z,99.97
2023-06-07T04:37:20.000Z,99.66
2023-06-07T04:38:20.000Z,99.11
2023-06-07T04:39:20.000Z,99.26
2023-06-07T04:40:20.000Z,99.21
2023-06-07T04:41:20.000Z,99.32
2023-06-07T04:42:20.000Z,99.21
2023-06-07T04:43:20.000Z,98.91
2023-06-07T04:44:20.000Z,98.71
2023-06-07T04:45:20.000Z,98.71
2023-06-07T04:46:20.000Z,98.61
2023-06-07T04:47:20.000Z,98.61
2023-06-07T04:48:20.000Z,98.76
2023-06-07T04:49:20.000Z,98.56
2023-06-07T04:50:20.000Z,98.56
2023-06-07T04:51:20.000Z,98.36
2023-06-07T04:52:20.000Z,97.96
2023-06-07T04:53:20.000Z,97.45
2023-06-07T04:54:20.000Z,97.05
2023-06-07T04:55:20.000Z,97.05
2023-06-07T04:56:20.000Z,97.30
2023-06-07T04:57:20.000Z,97.50
2023-06-07T04:58:20.000Z,97.20
2023-06-07T04:59:20.000Z,97.10
2023-06-07T05:00:20.000Z,96.69
2023-06-07T05:01:20.000Z,96.69
2023-06-07T05:02:20.000Z,96.80
2023-06-07T05:03:20.000Z,96.85
2023-06-07T05:04:20.000Z,96.09
2023-06-07T05:05:20.000Z,95.64
2023-06-07T05:06:20.000Z,96.04
2023-06-07T05:07:20.000Z,96.09
2023-06-07T05:08:20.000Z,96.14
2023-06-07T05:09:20.000Z,96.25
2023-06-07T05:10:20.000Z,96.65
2023-06-07T05:11:20.000Z,95.84
2023-06-07T05:12:20.000Z,96.25
2023-06-07T05:13:20.000Z,96.55
2023-06-07T05:14:20.000Z,96.80
2023-06-07T05:15:19.000Z,96.34
2023-06-07T05:16:19.000Z,96.04
2023-06-07T05:17:19.000Z,95.84
2023-06-07T05:18:19.000Z,95.79
2023-06-07T05:19:19.000Z,95.79
2023-06-07T05:20:19.000Z,95.70
2023-06-07T05:21:19.000Z,95.70
2023-06-07T05:22:19.000Z,95.39
2023-06-07T05:23:19.000Z,95.19
2023-06-07T05:24:19.000Z,94.99
2023-06-07T05:25:19.000Z,95.39
2023-06-07T05:26:19.000Z,95.79
2023-06-07T05:27:19.000Z,95.79
2023-06-07T05:28:19.000Z,95.70
2023-06-07T05:29:19.000Z,95.59
2023-06-07T05:30:19.000Z,95.14
2023-06-07T05:31:19.000Z,94.89
2023-06-07T05:32:19.000Z,94.59
2023-06-07T05:33:19.000Z,94.68
2023-06-07T05:34:19.000Z,94.48
2023-06-07T05:35:19.000Z,94.28
2023-06-07T05:36:19.000Z,93.77
2023-06-07T05:37:19.000Z,93.68
2023-06-07T05:38:19.000Z,94.28
2023-06-07T05:39:19.000Z,94.28
2023-06-07T05:40:19.000Z,94.18
2023-06-07T05:41:19.000Z,93.98
2023-06-07T05:42:19.000Z,93.57
2023-06-07T05:43:19.000Z,93.48
2023-06-07T05:44:19.000Z,93.98
2023-06-07T05:45:19.000Z,93.68
2023-06-07T05:46:19.000Z,93.37
2023-06-07T05:47:19.000Z,93.98
2023-06-07T05:48:19.000Z,93.98
2023-06-07T05:49:19.000Z,93.68
2023-06-07T05:50:19.000Z,93.88
2023-06-07T05:51:19.000Z,93.88
2023-06-07T05:52:19.000Z,94.08
2023-06-07T05:53:19.000Z,94.28
2023-06-07T05:54:19.000Z,94.38
2023-06-07T05:55:19.000Z,94.59
2023-06-07T05:56:19.000Z,94.68
2023-06-07T05:57:19.000Z,94.08
2023-06-07T05:58:19.000Z,94.38
2023-06-07T05:59:19.000Z,94.79
2023-06-07T06:00:19.000Z,94.89
2023-06-07T06:01:19.000Z,94.99
2023-06-07T06:02:19.000Z,94.99
2023-06-07T06:03:19.000Z,94.94
2023-06-07T06:04:19.000Z,94.68
2023-06-07T06:11:36.000Z,94.44
2023-06-07T06:11:36.000Z,94.64
2023-06-07T06:12:36.000Z,93.93
2023-06-07T06:13:36.000Z,93.63
2023-06-07T06:14:36.000Z,93.43
2023-06-07T06:15:36.000Z,93.33
2023-06-07T06:16:36.000Z,93.33
2023-06-07T06:17:36.000Z,93.73
2023-06-07T06:18:36.000Z,94.13
2023-06-07T06:19:36.000Z,93.93
2023-06-07T06:20:36.000Z,93.84
2023-06-07T06:21:36.000Z,93.63
2023-06-07T06:22:36.000Z,93.53
2023-06-07T06:23:36.000Z,93.23
2023-06-07T06:24:36.000Z,93.48
2023-06-07T06:25:36.000Z,93.68
2023-06-07T06:26:36.000Z,93.48
2023-06-07T06:27:36.000Z,93.77
2023-06-07T06:28:36.000Z,93.57
2023-06-07T06:29:36.000Z,93.48
2023-06-07T06:30:36.000Z,93.27
2023-06-07T06:31:36.000Z,92.86
2023-06-07T06:32:36.000Z,93.07
2023-06-07T06:33:36.000Z,92.97
2023-06-07T06:34:36.000Z,92.97
2023-06-07T06:35:36.000Z,93.17
2023-06-07T06:36:36.000Z,93.07
2023-06-07T06:37:36.000Z,93.27
2023-06-07T06:38:36.000Z,92.97
2023-06-07T06:39:36.000Z,92.86
2023-06-07T06:40:36.000Z,92.97
2023-06-07T06:41:36.000Z,93.27
2023-06-07T06:42:36.000Z,93.27
2023-06-07T06:43:36.000Z,93.37
2023-06-07T06:44:36.000Z,93.17
2023-06-07T06:45:36.000Z,92.97
2023-06-07T06:46:35.000Z,92.86
2023-06-07T06:47:35.000Z,93.17
2023-06-07T06:48:35.000Z,93.07
2023-06-07T06:49:35.000Z,92.86
2023-06-07T06:50:35.000Z,92.57
2023-06-07T06:51:35.000Z,92.57
2023-06-07T06:52:35.000Z,92.77
2023-06-07T06:53:35.000Z,92.97
2023-06-07T06:54:35.000Z,93.37
2023-06-07T06:55:35.000Z,93.57
2023-06-07T06:56:35.000Z,93.68
2023-06-07T06:57:35.000Z,93.43
2023-06-07T06:58:35.000Z,92.32
2023-06-07T06:59:35.000Z,90.70
2023-06-07T07:00:35.000Z,90.95
2023-06-07T07:01:35.000Z,91.01
2023-06-07T07:02:35.000Z,90.70
2023-06-07T07:03:35.000Z,90.65
2023-06-07T07:04:35.000Z,91.21
2023-06-07T07:05:35.000Z,90.50
2023-06-07T07:06:35.000Z,89.74
2023-06-07T07:07:35.000Z,90.55
2023-06-07T07:08:35.000Z,90.50
2023-06-07T07:09:35.000Z,90.41
2023-06-07T07:10:35.000Z,91.01
2023-06-07T07:11:35.000Z,91.71
2023-06-07T07:12:35.000Z,92.02
2023-06-07T07:13:35.000Z,91.61
2023-06-07T07:14:35.000Z,90.81
2023-06-07T07:15:35.000Z,90.91
2023-06-07T07:16:35.000Z,90.41
2023-06-07T07:17:35.000Z,90.77
2023-06-07T07:18:35.000Z,90.86
2023-06-07T07:19:35.000Z,90.42
2023-06-07T07:20:35.000Z,90.42
2023-06-07T07:21:35.000Z,90.22
2023-06-07T07:22:35.000Z,89.77
2023-06-07T07:23:35.000Z,89.57
2023-06-07T07:24:35.000Z,89.63
2023-06-07T07:25:35.000Z,87.51
2023-06-07T07:26:35.000Z,86.30
2023-06-07T07:27:35.000Z,85.40
2023-06-07T07:28:35.000Z,85.40
2023-06-07T07:29:35.000Z,85.10
2023-06-07T07:30:35.000Z,87.82
2023-06-07T07:31:35.000Z,86.77
2023-06-07T07:32:35.000Z,85.96
2023-06-07T07:33:35.000Z,84.75
2023-06-07T07:34:35.000Z,84.35
2023-06-07T07:35:35.000Z,84.35
2023-06-07T07:36:35.000Z,84.55
2023-06-07T07:37:35.000Z,85.46
2023-06-07T07:38:35.000Z,83.75
2023-06-07T07:39:35.000Z,84.35
2023-06-07T07:40:35.000Z,84.95
2023-06-07T07:41:35.000Z,84.25
2023-06-07T07:42:35.000Z,83.95
2023-06-07T07:43:35.000Z,84.65
2023-06-07T07:44:35.000Z,84.25
2023-06-07T07:45:35.000Z,84.55
2023-06-07T07:46:35.000Z,82.84
2023-06-07T07:47:35.000Z,81.73
2023-06-07T07:48:35.000Z,82.54
2023-06-07T07:49:35.000Z,83.11
2023-06-07T07:50:35.000Z,81.99
2023-06-07T07:51:35.000Z,82.70
2023-06-07T07:52:35.000Z,81.99
2023-06-07T07:53:35.000Z,83.31
2023-06-07T07:54:35.000Z,79.48
2023-06-07T07:55:35.000Z,78.58
2023-06-07T07:56:35.000Z,78.38
2023-06-07T07:57:35.000Z,78.17
2023-06-07T07:58:35.000Z,78.27
2023-06-07T07:59:34.000Z,78.94
2023-06-07T08:00:34.000Z,80.85
2023-06-07T08:01:34.000Z,81.15
2023-06-07T08:02:34.000Z,81.05
2023-06-07T08:03:34.000Z,80.65
2023-06-07T08:04:34.000Z,79.54
2023-06-07T08:05:34.000Z,79.14
2023-06-07T08:06:34.000Z,79.35
2023-06-07T08:07:34.000Z,79.10
2023-06-07T08:08:34.000Z,79.21
2023-06-07T08:09:34.000Z,78.20
2023-06-07T08:10:34.000Z,78.20
2023-06-07T08:11:34.000Z,78.30
2023-06-07T08:12:34.000Z,78.70
2023-06-07T08:13:34.000Z,77.29
2023-06-07T08:14:34.000Z,77.20
2023-06-07T08:15:34.000Z,76.29
2023-06-07T08:16:34.000Z,77.29
2023-06-07T08:17:34.000Z,78.20
2023-06-07T08:18:34.000Z,78.70
2023-06-07T08:19:34.000Z,77.70
2023-06-07T08:20:34.000Z,77.90
2023-06-07T08:21:34.000Z,78.20
2023-06-07T08:22:34.000Z,78.20
2023-06-07T08:23:34.000Z,78.90
2023-06-07T08:24:34.000Z,79.21
2023-06-07T08:25:34.000Z,78.34
2023-06-07T08:26:34.000Z,78.34
2023-06-07T08:27:34.000Z,78.54
2023-06-07T08:28:34.000Z,79.24
2023-06-07T08:29:34.000Z,79.21
2023-06-07T08:30:34.000Z,75.99
2023-06-07T08:31:34.000Z,76.53
2023-06-07T08:32:34.000Z,76.53
2023-06-07T08:33:34.000Z,76.83
2023-06-07T08:34:34.000Z,77.83
2023-06-07T08:35:33.000Z,78.44
2023-06-07T08:36:33.000Z,81.12
2023-06-07T08:37:33.000Z,78.60
2023-06-07T08:38:33.000Z,79.10
2023-06-07T08:39:33.000Z,80.41
2023-06-07T08:40:33.000Z,81.12
2023-06-07T08:41:33.000Z,76.89
2023-06-07T08:42:33.000Z,77.86
2023-06-07T08:43:33.000Z,78.27
2023-06-07T08:44:33.000Z,77.36
2023-06-07T08:45:33.000Z,78.66
2023-06-07T08:46:33.000Z,78.27
2023-06-07T08:47:33.000Z,76.76
2023-06-07T08:48:33.000Z,77.62
2023-06-07T08:49:33.000Z,76.82
2023-06-07T08:50:33.000Z,74.21
2023-06-07T08:51:33.000Z,73.41
2023-06-07T08:52:33.000Z,76.21
2023-06-07T08:53:33.000Z,74.81
2023-06-07T08:54:33.000Z,76.38
2023-06-07T08:55:33.000Z,74.57
2023-06-07T08:56:33.000Z,73.77
2023-06-07T08:57:33.000Z,73.87
2023-06-07T08:58:33.000Z,74.88
2023-06-07T08:59:33.000Z,76.18
2023-06-07T09:00:33.000Z,71.36
2023-06-07T09:01:33.000Z,71.26
2023-06-07T09:02:33.000Z,69.46
2023-06-07T09:03:33.000Z,69.92
2023-06-07T09:04:33.000Z,70.03
2023-06-07T09:05:33.000Z,73.13
2023-06-07T09:06:32.000Z,71.13
2023-06-07T09:07:32.000Z,72.90
2023-06-07T09:08:32.000Z,72.40
2023-06-07T09:09:32.000Z,70.79
2023-06-07T09:10:32.000Z,69.49
2023-06-07T09:11:32.000Z,70.59
2023-06-07T09:12:32.000Z,72.80
2023-06-07T09:13:32.000Z,69.59
2023-06-07T09:14:32.000Z,70.29
2023-06-07T09:15:32.000Z,70.29
2023-06-07T09:16:32.000Z,69.69
2023-06-07T09:17:32.000Z,68.69
2023-06-07T09:18:32.000Z,71.06
2023-06-07T09:19:32.000Z,69.86
2023-06-07T09:20:32.000Z,68.35
2023-06-07T09:21:32.000Z,68.39
2023-06-07T09:22:32.000Z,69.96
2023-06-07T09:23:32.000Z,70.46
2023-06-07T09:24:32.000Z,69.96
2023-06-07T09:25:32.000Z,69.06
2023-06-07T09:26:32.000Z,67.76
2023-06-07T09:27:32.000Z,70.06
2023-06-07T09:28:32.000Z,72.77
2023-06-07T09:29:32.000Z,71.26
2023-06-07T09:30:31.000Z,73.27
2023-06-07T09:31:31.000Z,71.56
2023-06-07T09:32:31.000Z,68.35
2023-06-07T09:33:31.000Z,68.96
2023-06-07T09:34:31.000Z,67.85
2023-06-07T09:35:31.000Z,67.35
2023-06-07T09:36:31.000Z,69.26
2023-06-07T09:37:31.000Z,67.65
2023-06-07T09:38:31.000Z,68.02
2023-06-07T09:39:31.000Z,67.32
2023-06-07T09:40:31.000Z,65.42
2023-06-07T09:41:31.000Z,64.22
2023-06-07T09:42:31.000Z,65.12
2023-06-07T09:43:31.000Z,65.62
2023-06-07T09:44:31.000Z,64.72
2023-06-07T09:45:31.000Z,65.01
2023-06-07T09:46:31.000Z,66.52
2023-06-07T09:47:31.000Z,67.12
2023-06-07T09:48:31.000Z,66.32
2023-06-07T09:49:31.000Z,67.79
2023-06-07T09:50:31.000Z,68.19
2023-06-07T09:51:31.000Z,64.78
2023-06-07T09:52:31.000Z,65.39
2023-06-07T09:53:30.000Z,67.19
2023-06-07T09:54:30.000Z,66.09
2023-06-07T09:55:30.000Z,67.39
2023-06-07T09:56:30.000Z,66.19
2023-06-07T09:57:30.000Z,69.06
2023-06-07T09:58:30.000Z,65.66
2023-06-07T09:59:30.000Z,64.25
2023-06-07T10:00:30.000Z,64.95
2023-06-07T10:01:30.000Z,65.22
2023-06-07T10:02:30.000Z,67.82
2023-06-07T10:03:30.000Z,65.83
2023-06-07T10:04:30.000Z,65.52
2023-06-07T10:05:30.000Z,64.83
2023-06-07T10:06:30.000Z,61.42
2023-06-07T10:07:30.000Z,61.52
2023-06-07T10:08:30.000Z,62.72
2023-06-07T10:09:30.000Z,61.22
2023-06-07T10:10:30.000Z,63.22
2023-06-07T10:11:30.000Z,62.99
2023-06-07T10:12:30.000Z,65.29
2023-06-07T10:13:30.000Z,61.79
2023-06-07T10:14:30.000Z,59.39
2023-06-07T10:15:30.000Z,62.29
2023-06-07T10:16:30.000Z,61.69
2023-06-07T10:17:29.000Z,60.89
2023-06-07T10:18:29.000Z,62.96
2023-06-07T10:19:29.000Z,63.96
2023-06-07T10:20:29.000Z,63.06
2023-06-07T10:21:29.000Z,61.87
2023-06-07T10:22:29.000Z,61.36
2023-06-07T10:23:29.000Z,62.56
2023-06-07T10:24:29.000Z,63.56
2023-06-07T10:25:29.000Z,64.43
2023-06-07T10:26:29.000Z,65.93
2023-06-07T10:27:29.000Z,64.50
2023-06-07T10:28:29.000Z,64.50
2023-06-07T10:29:29.000Z,61.30
2023-06-07T10:30:29.000Z,62.48
2023-06-07T10:31:29.000Z,60.28
2023-06-07T10:32:29.000Z,61.57
2023-06-07T10:33:29.000Z,62.07
2023-06-07T10:34:29.000Z,61.98
2023-06-07T10:35:29.000Z,62.77
2023-06-07T10:36:29.000Z,63.54
2023-06-07T10:37:29.000Z,61.44
2023-06-07T10:38:29.000Z,60.85
2023-06-07T10:39:29.000Z,60.95
2023-06-07T10:40:29.000Z,62.45
2023-06-07T10:41:28.000Z,64.14
2023-06-07T10:42:28.000Z,60.05
2023-06-07T10:43:28.000Z,60.95
2023-06-07T10:44:28.000Z,60.75
2023-06-07T10:45:28.000Z,58.65
2023-06-07T10:46:28.000Z,57.86
2023-06-07T10:47:28.000Z,58.36
2023-06-07T10:48:28.000Z,59.85
2023-06-07T10:49:28.000Z,57.26
2023-06-07T10:50:28.000Z,59.85
2023-06-07T10:51:28.000Z,58.53
2023-06-07T10:52:28.000Z,58.15
2023-06-07T10:53:28.000Z,58.15
2023-06-07T10:54:28.000Z,60.22
2023-06-07T10:55:28.000Z,57.93
2023-06-07T10:56:28.000Z,57.82
2023-06-07T10:57:28.000Z,57.53
2023-06-07T10:58:28.000Z,58.80
2023-06-07T10:59:28.000Z,55.51
2023-06-07T11:00:27.000Z,57.60
2023-06-07T11:01:27.000Z,58.20
2023-06-07T11:02:27.000Z,59.19
2023-06-07T11:03:27.000Z,55.21
2023-06-07T11:04:27.000Z,53.71
2023-06-07T11:05:27.000Z,54.21
2023-06-07T11:06:27.000Z,55.61
2023-06-07T11:07:27.000Z,54.51
2023-06-07T11:08:27.000Z,56.98
2023-06-07T11:09:27.000Z,58.87
2023-06-07T11:10:27.000Z,57.97
2023-06-07T11:11:27.000Z,55.98
2023-06-07T11:12:27.000Z,54.08
2023-06-07T11:13:27.000Z,54.19
2023-06-07T11:14:27.000Z,55.61
2023-06-07T11:15:27.000Z,55.31
2023-06-07T11:16:27.000Z,55.01
2023-06-07T11:17:26.000Z,55.41
2023-06-07T11:18:26.000Z,57.87
2023-06-07T11:19:26.000Z,60.76
2023-06-07T11:20:26.000Z,62.52
2023-06-07T11:21:26.000Z,59.94
2023-06-07T11:22:26.000Z,57.94
2023-06-07T11:23:26.000Z,60.03
2023-06-07T11:24:26.000Z,57.22
2023-06-07T11:25:26.000Z,54.96
2023-06-07T11:26:26.000Z,56.55
2023-06-07T11:27:26.000Z,56.12
2023-06-07T11:28:26.000Z,54.75
2023-06-07T11:29:26.000Z,55.35
2023-06-07T11:30:26.000Z,55.55
2023-06-07T11:31:26.000Z,57.35
2023-06-07T11:32:26.000Z,58.31
2023-06-07T11:33:26.000Z,56.82
2023-06-07T11:34:25.000Z,55.82
2023-06-07T11:35:25.000Z,53.83
2023-06-07T11:36:25.000Z,54.53
2023-06-07T11:37:25.000Z,56.23
2023-06-07T11:38:25.000Z,55.13
2023-06-07T11:39:25.000Z,56.82
2023-06-07T11:40:25.000Z,55.43
2023-06-07T11:41:25.000Z,56.02
2023-06-07T11:42:25.000Z,54.50
2023-06-07T11:43:25.000Z,56.99
2023-06-07T11:44:25.000Z,53.02
2023-06-07T11:45:25.000Z,56.40
2023-06-07T11:46:25.000Z,54.28
2023-06-07T11:47:25.000Z,55.47
2023-06-07T11:48:25.000Z,56.54
2023-06-07T11:49:24.000Z,54.25
2023-06-07T11:50:24.000Z,56.74
2023-06-07T11:51:24.000Z,53.16
2023-06-07T11:52:24.000Z,53.76
2023-06-07T11:53:24.000Z,52.56
2023-06-07T11:54:24.000Z,53.66
2023-06-07T11:55:24.000Z,55.74
2023-06-07T11:56:24.000Z,55.25
2023-06-07T11:57:24.000Z,54.46
2023-06-07T11:58:24.000Z,55.74
2023-06-07T11:59:24.000Z,54.55
2023-06-07T12:00:24.000Z,55.44
2023-06-07T12:01:24.000Z,53.66
2023-06-07T12:02:24.000Z,54.25
2023-06-07T12:03:24.000Z,55.35
2023-06-07T12:04:23.000Z,54.46
2023-06-07T12:05:23.000Z,54.85
2023-06-07T12:06:23.000Z,52.94
2023-06-07T12:07:23.000Z,53.93
2023-06-07T12:08:23.000Z,55.52
2023-06-07T12:09:23.000Z,55.40
2023-06-07T12:10:23.000Z,50.73
2023-06-07T12:11:23.000Z,53.21
2023-06-07T12:12:23.000Z,53.31
2023-06-07T12:13:23.000Z,54.50
2023-06-07T12:14:23.000Z,52.22
2023-06-07T12:15:23.000Z,51.82
2023-06-07T12:16:23.000Z,52.51
2023-06-07T12:17:23.000Z,50.81
2023-06-07T12:18:22.000Z,51.82
2023-06-07T12:19:22.000Z,51.92
2023-06-07T12:20:22.000Z,50.73
2023-06-07T12:21:22.000Z,51.03
2023-06-07T12:22:22.000Z,52.12
2023-06-07T12:23:22.000Z,51.92
2023-06-07T12:24:22.000Z,50.95
2023-06-07T12:25:22.000Z,53.23
2023-06-07T12:26:22.000Z,52.34
2023-06-07T12:27:22.000Z,53.33
2023-06-07T12:28:22.000Z,54.21
2023-06-07T12:29:22.000Z,51.23
2023-06-07T12:30:22.000Z,52.51
2023-06-07T12:31:21.000Z,49.84
2023-06-07T12:32:21.000Z,52.72
2023-06-07T12:33:21.000Z,50.73
2023-06-07T12:34:21.000Z,51.42
2023-06-07T12:35:21.000Z,52.02
2023-06-07T12:36:21.000Z,51.10
2023-06-07T12:37:21.000Z,51.32
2023-06-07T12:38:21.000Z,56.06
2023-06-07T12:39:21.000Z,52.19
2023-06-07T12:40:21.000Z,50.01
2023-06-07T12:41:21.000Z,50.31
2023-06-07T12:42:21.000Z,52.49
2023-06-07T12:43:21.000Z,51.30
2023-06-07T12:44:21.000Z,51.18
2023-06-07T12:45:20.000Z,51.28
2023-06-07T12:46:20.000Z,50.38
2023-06-07T12:47:20.000Z,53.66
2023-06-07T12:48:20.000Z,54.45
2023-06-07T12:49:20.000Z,53.83
2023-06-07T12:50:20.000Z,49.88
2023-06-07T12:51:20.000Z,49.49
2023-06-07T12:52:20.000Z,48.80
2023-06-07T12:53:20.000Z,50.88
2023-06-07T12:54:20.000Z,49.69
2023-06-07T12:55:20.000Z,50.85
2023-06-07T12:56:20.000Z,50.18
2023-06-07T12:57:20.000Z,48.99